Amy C. Mc Allister — WCZ9520 — position and weather

sailwx.info

Track history (hours):
 
Tides and Currents Weather Stations Pressure Air Temp Water Temp Dewpoint Dewpoint Depression Visibility Wind Speed Wind Dir Waves Ship Positions

Amy C. Mc Allister

Owner: MC ALLISTER TOWING & TRANSPORTATION INC, NEW YORK, NY. More information available from US FCC via Universal Licensing System and Coast Guard Vessel Documentation Center.

Last reported at 2016-Dec-06 11:32 UTC. Time now 2016-Dec-06 12:11 UTC.
Position N 40°38' W 074°10'.

; draft 4.9 m.

Type: Towing. MMSI: 366995040.

Date/timePositionNaut miles runAvg speedWind from/ knotsBaromVisibWave heightAir tempDewpointWater temp
2016-Dec-06 11:32N 40°38' W 074°10'0 0.0
2016-Dec-06 10:33N 40°38' W 074°10'0 0.0
2016-Dec-06 09:33N 40°38' W 074°10'0 0.0
2016-Dec-06 08:33N 40°38' W 074°10'0 0.0
2016-Dec-06 07:33N 40°38' W 074°10'0 0.0
2016-Dec-06 06:33N 40°38' W 074°10'0 0.0
2016-Dec-06 05:33N 40°38' W 074°10'0 0.0
2016-Dec-06 04:33N 40°38' W 074°10'0 0.0
2016-Dec-06 03:33N 40°38' W 074°10'0 0.0
2016-Dec-06 02:33N 40°38' W 074°10'1 0.6
2016-Dec-06 01:33N 40°39' W 074°09'1 1.0
2016-Dec-06 00:34N 40°40' W 074°09'0 0.0
2016-Dec-05 23:34N 40°40' W 074°09'0 0.0
2016-Dec-05 22:33N 40°40' W 074°09'0 0.0
2016-Dec-05 21:33N 40°40' W 074°09'0 0.0
2016-Dec-05 20:33N 40°40' W 074°09'0 0.0
2016-Dec-05 19:33N 40°40' W 074°09'4 3.8
2016-Dec-05 18:32N 40°37' W 074°12'0 0.2
2016-Dec-05 17:33N 40°36' W 074°12'4 4.0
2016-Dec-05 16:26N 40°32' W 074°15'6 6.8
2016-Dec-05 15:33N 40°38' W 074°12'8 8.0
2016-Dec-05 14:34N 40°41' W 074°02'6 6.3
2016-Dec-05 13:34N 40°46' W 073°57'3 3.0
2016-Dec-05 12:33N 40°47' W 073°54'1 1.3
2016-Dec-05 11:34N 40°47' W 073°55'4 4.1
2016-Dec-05 10:34N 40°43' W 073°58'6 6.5
2016-Dec-05 09:34N 40°39' W 074°04'4 3.9
2016-Dec-05 08:34N 40°42' W 074°07'0 0.0
2016-Dec-05 07:34N 40°42' W 074°07'0 0.0
2016-Dec-05 06:33N 40°42' W 074°07'0 0.0
2016-Dec-05 05:34N 40°42' W 074°07'0 0.0
2016-Dec-05 04:34N 40°42' W 074°07'0 0.1
2016-Dec-05 03:34N 40°42' W 074°07'1 1.2
2016-Dec-05 02:34N 40°41' W 074°08'3 3.2
2016-Dec-05 01:33N 40°38' W 074°10'0 0.0
2016-Dec-05 00:33N 40°38' W 074°10'0 0.0
2016-Dec-04 23:34N 40°38' W 074°10'0 0.0
2016-Dec-04 22:33N 40°38' W 074°10'1 0.6
2016-Dec-04 21:31N 40°39' W 074°09'2 2.2
2016-Dec-04 20:34N 40°41' W 074°09'0 0.5
2016-Dec-04 19:34N 40°40' W 074°08'0 0.0
2016-Dec-04 18:34N 40°40' W 074°08'0 0.0
2016-Dec-04 17:34N 40°40' W 074°08'1 0.7
2016-Dec-04 16:33N 40°41' W 074°08'0 0.5
2016-Dec-04 15:34N 40°41' W 074°07'3 3.2
2016-Dec-04 14:34N 40°39' W 074°05'3 2.9
2016-Dec-04 13:34N 40°40' W 074°01'6 6.0
2016-Dec-04 12:34N 40°39' W 074°09'1 1.5
2016-Dec-04 11:34N 40°41' W 074°09'5 4.9
2016-Dec-04 10:33N 40°38' W 074°03'5 5.0
2016-Dec-04 09:33N 40°38' W 074°10'0 0.0
2016-Dec-04 08:33N 40°38' W 074°10'0 0.0
2016-Dec-04 07:34N 40°38' W 074°10'0 0.0
2016-Dec-04 06:33N 40°38' W 074°10'4 4.3
2016-Dec-04 05:33N 40°35' W 074°13'3 2.6
2016-Dec-04 04:29N 40°33' W 074°15'0 0.2
2016-Dec-04 03:33N 40°33' W 074°15'0 0.0
2016-Dec-04 02:33N 40°33' W 074°15'0 0.0
2016-Dec-04 01:33N 40°33' W 074°15'1 0.2
2016-Dec-03 21:10N 40°33' W 074°14'2 3.6
2016-Dec-03 20:32N 40°35' W 074°12'4 3.9
2016-Dec-03 19:34N 40°39' W 074°10'0 0.2
2016-Dec-03 18:33N 40°38' W 074°10'0 0.0
2016-Dec-03 17:33N 40°38' W 074°10'2 2.3
2016-Dec-03 16:34N 40°40' W 074°08'4 3.9
2016-Dec-03 15:34N 40°39' W 074°04'1 1.3
2016-Dec-03 14:34N 40°40' W 074°04'0 0.1
2016-Dec-03 13:34N 40°40' W 074°04'0 0.0
2016-Dec-03 12:34N 40°40' W 074°04'0 0.0
2016-Dec-03 11:34N 40°40' W 074°04'0 0.0
2016-Dec-03 10:34N 40°40' W 074°04'0 0.0
2016-Dec-03 09:34N 40°40' W 074°04'0 0.4
2016-Dec-03 08:34N 40°40' W 074°05'0 0.2
2016-Dec-03 07:34N 40°40' W 074°05'0 0.0
2016-Dec-03 06:34N 40°40' W 074°05'0 0.0
2016-Dec-03 05:34N 40°40' W 074°05'3 2.8
2016-Dec-03 04:34N 40°40' W 074°09'1 0.7
2016-Dec-03 03:33N 40°40' W 074°08'2 2.2
2016-Dec-03 02:33N 40°38' W 074°10'0 0.0
2016-Dec-03 01:33N 40°38' W 074°10'0 0.0
2016-Dec-03 00:33N 40°38' W 074°10'0 0.0
2016-Dec-02 23:33N 40°38' W 074°10'0 0.0
2016-Dec-02 22:33N 40°38' W 074°10'2 2.1
2016-Dec-02 21:33N 40°40' W 074°08'2 1.6
2016-Dec-02 20:34N 40°42' W 074°09'0 0.0
2016-Dec-02 19:34N 40°42' W 074°09'0 0.0
2016-Dec-02 18:34N 40°42' W 074°09'2 1.9
2016-Dec-02 17:33N 40°40' W 074°08'2 1.8
2016-Dec-02 16:33N 40°38' W 074°10'0 0.0
2016-Dec-02 15:33N 40°38' W 074°10'0 0.0
2016-Dec-02 14:33N 40°38' W 074°10'2 2.4
2016-Dec-02 13:32N 40°39' W 074°07'1 0.7
2016-Dec-02 12:34N 40°39' W 074°06'2 1.8
2016-Dec-02 11:34N 40°39' W 074°03'1 1.1
2016-Dec-02 10:34N 40°38' W 074°04'0 0.0
2016-Dec-02 09:33N 40°38' W 074°04'4 3.8
2016-Dec-02 08:33N 40°39' W 074°09'2 2.3
2016-Dec-02 07:34N 40°41' W 074°09'3 2.6
2016-Dec-02 06:33N 40°38' W 074°10'0 0.0
2016-Dec-02 05:32N 40°38' W 074°10'6 5.1
2016-Dec-02 04:27N 40°33' W 074°13'1 0.7
2016-Dec-02 03:08N 40°33' W 074°14'0 0.0
2016-Dec-02 02:33N 40°34' W 074°14'0 0.0
2016-Dec-02 01:33N 40°34' W 074°14'0 0.0
2016-Dec-01 22:33N 40°33' W 074°14'2 2.4
2016-Dec-01 21:34N 40°35' W 074°12'1 0.9
2016-Dec-01 20:27N 40°36' W 074°12'4 4.1
2016-Dec-01 19:33N 40°39' W 074°08'1 1.3
2016-Dec-01 18:33N 40°39' W 074°07'2 1.8
2016-Dec-01 17:34N 40°40' W 074°05'0 0.0
2016-Dec-01 16:33N 40°40' W 074°05'0 0.0
2016-Dec-01 15:33N 40°40' W 074°05'0 0.0
2016-Dec-01 14:33N 40°40' W 074°05'0 0.0
2016-Dec-01 13:34N 40°40' W 074°05'0 0.0
2016-Dec-01 12:33N 40°40' W 074°05'0 0.0
2016-Dec-01 11:33N 40°40' W 074°05'0 0.0
2016-Dec-01 10:33N 40°40' W 074°05'2 1.7
2016-Dec-01 09:33N 40°39' W 074°03'1 0.5
2016-Dec-01 08:34N 40°40' W 074°04'1 1.2
2016-Dec-01 07:34N 40°40' W 074°05'0 0.0
2016-Dec-01 06:34N 40°40' W 074°05'2 1.9
2016-Dec-01 05:34N 40°40' W 074°03'2 2.3
2016-Dec-01 04:33N 40°42' W 074°00'3 2.7
2016-Dec-01 03:34N 40°40' W 074°03'1 1.3
2016-Dec-01 02:34N 40°40' W 074°05'4 4.3
2016-Dec-01 01:33N 40°38' W 074°10'2 2.3
2016-Dec-01 00:33N 40°39' W 074°07'2 1.5
2016-Nov-30 23:33N 40°40' W 074°09'1 1.5
2016-Nov-30 22:33N 40°41' W 074°09'3 2.7
2016-Nov-30 21:32N 40°39' W 074°08'4 4.4
2016-Nov-30 20:33N 40°36' W 074°03'2 1.8
2016-Nov-30 19:33N 40°38' W 074°04'4 3.8
2016-Nov-30 18:33N 40°38' W 074°09'1 0.6
2016-Nov-30 17:33N 40°38' W 074°10'0 0.0
2016-Nov-30 16:33N 40°38' W 074°10'0 0.0
2016-Nov-30 15:33N 40°38' W 074°10'0 0.0
2016-Nov-30 14:34N 40°38' W 074°10'2 2.5
2016-Nov-30 13:33N 40°39' W 074°07'0 0.5
2016-Nov-30 12:34N 40°39' W 074°07'6 5.5
2016-Nov-30 11:32N 40°35' W 074°13'2 2.0
2016-Nov-30 10:33N 40°33' W 074°14'0 0.1
2016-Nov-30 09:33N 40°33' W 074°15'6 6.3
2016-Nov-30 08:34N 40°39' W 074°10'0 0.5
2016-Nov-30 07:33N 40°38' W 074°10'0 0.0
2016-Nov-30 06:33N 40°38' W 074°10'0 0.0
2016-Nov-30 05:33N 40°38' W 074°10'0 0.0
2016-Nov-30 04:33N 40°38' W 074°10'0 0.0
2016-Nov-30 03:33N 40°38' W 074°10'0 0.0
2016-Nov-30 02:33N 40°38' W 074°10'0 0.0
2016-Nov-30 01:33N 40°38' W 074°10'0 0.0
2016-Nov-30 00:33N 40°38' W 074°10'0 0.0
2016-Nov-29 23:33N 40°38' W 074°10'2 1.8
2016-Nov-29 22:33N 40°38' W 074°12'5 2.4
2016-Nov-29 20:33N 40°33' W 074°14'6 6.2
2016-Nov-29 19:34N 40°39' W 074°10'3 2.6
2016-Nov-29 18:34N 40°39' W 074°07'3 2.6
2016-Nov-29 17:33N 40°38' W 074°10'0 0.0
2016-Nov-29 16:33N 40°38' W 074°10'0 0.0
2016-Nov-29 15:33N 40°38' W 074°10'0 0.0
2016-Nov-29 14:34N 40°38' W 074°10'0 0.0
2016-Nov-29 13:33N 40°38' W 074°10'0 0.0
2016-Nov-29 12:33N 40°38' W 074°10'0 0.0
2016-Nov-29 11:33N 40°38' W 074°10'0 0.0
2016-Nov-29 10:33N 40°38' W 074°10'0 0.0
2016-Nov-29 09:34N 40°38' W 074°10'1 1.2
2016-Nov-29 08:33N 40°38' W 074°11'3 2.6
2016-Nov-29 07:34N 40°39' W 074°08'2 1.6
2016-Nov-29 06:33N 40°39' W 074°06'3 2.9
2016-Nov-29 05:33N 40°38' W 074°10'0 0.0
2016-Nov-29 04:33N 40°38' W 074°10'0 0.0
2016-Nov-29 03:33N 40°38' W 074°10'2 2.1
2016-Nov-29 02:34N 40°40' W 074°08'2 1.7
2016-Nov-29 01:33N 40°39' W 074°09'2 2.4
2016-Nov-29 00:33N 40°38' W 074°12'4 4.2
2016-Nov-28 23:34N 40°39' W 074°07'2 2.3
2016-Nov-28 22:34N 40°38' W 074°04'1 1.0
2016-Nov-28 21:34N 40°39' W 074°04'1 1.4
2016-Nov-28 20:33N 40°40' W 074°03'3 2.7
2016-Nov-28 19:34N 40°41' W 074°00'2 1.7
2016-Nov-28 18:34N 40°42' W 073°58'0 0.0
2016-Nov-28 17:34N 40°42' W 073°58'0 0.0
2016-Nov-28 16:33N 40°42' W 073°58'0 0.0
2016-Nov-28 15:34N 40°42' W 073°58'0 0.0
2016-Nov-28 14:34N 40°42' W 073°58'0 0.1
2016-Nov-28 13:34N 40°42' W 073°59'4 3.8
2016-Nov-28 12:34N 40°40' W 074°03'5 4.5
2016-Nov-28 11:33N 40°40' W 074°09'2 1.8
2016-Nov-28 10:33N 40°39' W 074°07'1 0.7
2016-Nov-28 09:33N 40°39' W 074°06'3 2.8
2016-Nov-28 08:33N 40°38' W 074°10'0 0.0
2016-Nov-28 07:33N 40°38' W 074°10'0 0.0
2016-Nov-28 06:33N 40°38' W 074°10'0 0.0
2016-Nov-28 05:33N 40°38' W 074°10'0 0.0
2016-Nov-28 04:33N 40°38' W 074°10'2 2.0
2016-Nov-28 03:33N 40°40' W 074°08'2 1.7
2016-Nov-28 02:34N 40°39' W 074°07'2 1.8
2016-Nov-28 01:33N 40°38' W 074°10'0 0.0
2016-Nov-28 00:33N 40°38' W 074°10'0 0.0
2016-Nov-27 23:33N 40°38' W 074°10'0 0.0
2016-Nov-27 22:33N 40°38' W 074°10'0 0.0
2016-Nov-27 21:33N 40°38' W 074°10'0 0.0
2016-Nov-27 20:34N 40°38' W 074°10'2 2.2
2016-Nov-27 19:34N 40°39' W 074°07'3 3.3
2016-Nov-27 18:33N 40°42' W 074°09'3 3.4
2016-Nov-27 17:33N 40°38' W 074°10'0 0.0
2016-Nov-27 16:34N 40°38' W 074°10'0 0.0
2016-Nov-27 15:34N 40°38' W 074°10'0 0.0
2016-Nov-27 14:34N 40°38' W 074°10'0 0.0
2016-Nov-27 13:33N 40°38' W 074°10'0 0.0
2016-Nov-27 12:34N 40°38' W 074°10'0 0.0
2016-Nov-27 11:33N 40°38' W 074°10'0 0.0
2016-Nov-27 10:33N 40°38' W 074°10'0 0.0
2016-Nov-27 09:33N 40°38' W 074°10'0 0.3
2016-Nov-27 08:34N 40°38' W 074°09'4 3.8
2016-Nov-27 07:33N 40°39' W 074°05'4 3.9
2016-Nov-27 06:34N 40°42' W 074°01'8 7.5
2016-Nov-27 05:33N 40°48' W 073°55'  
Track history (hours):
 
Tides and Currents Weather Stations Pressure Air Temp Water Temp Dewpoint Dewpoint Depression Visibility Wind Speed Wind Dir Waves Ship Positions

Amy C. Mc Allister

Owner: MC ALLISTER TOWING & TRANSPORTATION INC, NEW YORK, NY. More information available from US FCC via Universal Licensing System and Coast Guard Vessel Documentation Center.

Last reported at 2016-Dec-06 11:32 UTC. Time now 2016-Dec-06 12:11 UTC.
Position N 40°38' W 074°10'.

; draft 4.9 m.

Type: Towing. MMSI: 366995040.

Date/timePositionNaut miles runAvg speedWind from/ knotsBaromVisibWave heightAir tempDewpointWater temp
2016-Dec-06 11:32N 40°38' W 074°10'0 0.0
2016-Dec-06 10:33N 40°38' W 074°10'0 0.0
2016-Dec-06 09:33N 40°38' W 074°10'0 0.0
2016-Dec-06 08:33N 40°38' W 074°10'0 0.0
2016-Dec-06 07:33N 40°38' W 074°10'0 0.0
2016-Dec-06 06:33N 40°38' W 074°10'0 0.0
2016-Dec-06 05:33N 40°38' W 074°10'0 0.0
2016-Dec-06 04:33N 40°38' W 074°10'0 0.0
2016-Dec-06 03:33N 40°38' W 074°10'0 0.0
2016-Dec-06 02:33N 40°38' W 074°10'1 0.6
2016-Dec-06 01:33N 40°39' W 074°09'1 1.0
2016-Dec-06 00:34N 40°40' W 074°09'0 0.0
2016-Dec-05 23:34N 40°40' W 074°09'0 0.0
2016-Dec-05 22:33N 40°40' W 074°09'0 0.0
2016-Dec-05 21:33N 40°40' W 074°09'0 0.0
2016-Dec-05 20:33N 40°40' W 074°09'0 0.0
2016-Dec-05 19:33N 40°40' W 074°09'4 3.8
2016-Dec-05 18:32N 40°37' W 074°12'0 0.2
2016-Dec-05 17:33N 40°36' W 074°12'4 4.0
2016-Dec-05 16:26N 40°32' W 074°15'6 6.8
2016-Dec-05 15:33N 40°38' W 074°12'8 8.0
2016-Dec-05 14:34N 40°41' W 074°02'6 6.3
2016-Dec-05 13:34N 40°46' W 073°57'3 3.0
2016-Dec-05 12:33N 40°47' W 073°54'1 1.3
2016-Dec-05 11:34N 40°47' W 073°55'4 4.1
2016-Dec-05 10:34N 40°43' W 073°58'6 6.5
2016-Dec-05 09:34N 40°39' W 074°04'4 3.9
2016-Dec-05 08:34N 40°42' W 074°07'0 0.0
2016-Dec-05 07:34N 40°42' W 074°07'0 0.0
2016-Dec-05 06:33N 40°42' W 074°07'0 0.0
2016-Dec-05 05:34N 40°42' W 074°07'0 0.0
2016-Dec-05 04:34N 40°42' W 074°07'0 0.1
2016-Dec-05 03:34N 40°42' W 074°07'1 1.2
2016-Dec-05 02:34N 40°41' W 074°08'3 3.2
2016-Dec-05 01:33N 40°38' W 074°10'0 0.0
2016-Dec-05 00:33N 40°38' W 074°10'0 0.0
2016-Dec-04 23:34N 40°38' W 074°10'0 0.0
2016-Dec-04 22:33N 40°38' W 074°10'1 0.6
2016-Dec-04 21:31N 40°39' W 074°09'2 2.2
2016-Dec-04 20:34N 40°41' W 074°09'0 0.5
2016-Dec-04 19:34N 40°40' W 074°08'0 0.0
2016-Dec-04 18:34N 40°40' W 074°08'0 0.0
2016-Dec-04 17:34N 40°40' W 074°08'1 0.7
2016-Dec-04 16:33N 40°41' W 074°08'0 0.5
2016-Dec-04 15:34N 40°41' W 074°07'3 3.2
2016-Dec-04 14:34N 40°39' W 074°05'3 2.9
2016-Dec-04 13:34N 40°40' W 074°01'6 6.0
2016-Dec-04 12:34N 40°39' W 074°09'1 1.5
2016-Dec-04 11:34N 40°41' W 074°09'5 4.9
2016-Dec-04 10:33N 40°38' W 074°03'5 5.0
2016-Dec-04 09:33N 40°38' W 074°10'0 0.0
2016-Dec-04 08:33N 40°38' W 074°10'0 0.0
2016-Dec-04 07:34N 40°38' W 074°10'0 0.0
2016-Dec-04 06:33N 40°38' W 074°10'4 4.3
2016-Dec-04 05:33N 40°35' W 074°13'3 2.6
2016-Dec-04 04:29N 40°33' W 074°15'0 0.2
2016-Dec-04 03:33N 40°33' W 074°15'0 0.0
2016-Dec-04 02:33N 40°33' W 074°15'0 0.0
2016-Dec-04 01:33N 40°33' W 074°15'1 0.2
2016-Dec-03 21:10N 40°33' W 074°14'2 3.6
2016-Dec-03 20:32N 40°35' W 074°12'4 3.9
2016-Dec-03 19:34N 40°39' W 074°10'0 0.2
2016-Dec-03 18:33N 40°38' W 074°10'0 0.0
2016-Dec-03 17:33N 40°38' W 074°10'2 2.3
2016-Dec-03 16:34N 40°40' W 074°08'4 3.9
2016-Dec-03 15:34N 40°39' W 074°04'1 1.3
2016-Dec-03 14:34N 40°40' W 074°04'0 0.1
2016-Dec-03 13:34N 40°40' W 074°04'0 0.0
2016-Dec-03 12:34N 40°40' W 074°04'0 0.0
2016-Dec-03 11:34N 40°40' W 074°04'0 0.0
2016-Dec-03 10:34N 40°40' W 074°04'0 0.0
2016-Dec-03 09:34N 40°40' W 074°04'0 0.4
2016-Dec-03 08:34N 40°40' W 074°05'0 0.2
2016-Dec-03 07:34N 40°40' W 074°05'0 0.0
2016-Dec-03 06:34N 40°40' W 074°05'0 0.0
2016-Dec-03 05:34N 40°40' W 074°05'3 2.8
2016-Dec-03 04:34N 40°40' W 074°09'1 0.7
2016-Dec-03 03:33N 40°40' W 074°08'2 2.2
2016-Dec-03 02:33N 40°38' W 074°10'0 0.0
2016-Dec-03 01:33N 40°38' W 074°10'0 0.0
2016-Dec-03 00:33N 40°38' W 074°10'0 0.0
2016-Dec-02 23:33N 40°38' W 074°10'0 0.0
2016-Dec-02 22:33N 40°38' W 074°10'2 2.1
2016-Dec-02 21:33N 40°40' W 074°08'2 1.6
2016-Dec-02 20:34N 40°42' W 074°09'0 0.0
2016-Dec-02 19:34N 40°42' W 074°09'0 0.0
2016-Dec-02 18:34N 40°42' W 074°09'2 1.9
2016-Dec-02 17:33N 40°40' W 074°08'2 1.8
2016-Dec-02 16:33N 40°38' W 074°10'0 0.0
2016-Dec-02 15:33N 40°38' W 074°10'0 0.0
2016-Dec-02 14:33N 40°38' W 074°10'2 2.4
2016-Dec-02 13:32N 40°39' W 074°07'1 0.7
2016-Dec-02 12:34N 40°39' W 074°06'2 1.8
2016-Dec-02 11:34N 40°39' W 074°03'1 1.1
2016-Dec-02 10:34N 40°38' W 074°04'0 0.0
2016-Dec-02 09:33N 40°38' W 074°04'4 3.8
2016-Dec-02 08:33N 40°39' W 074°09'2 2.3
2016-Dec-02 07:34N 40°41' W 074°09'3 2.6
2016-Dec-02 06:33N 40°38' W 074°10'0 0.0
2016-Dec-02 05:32N 40°38' W 074°10'6 5.1
2016-Dec-02 04:27N 40°33' W 074°13'1 0.7
2016-Dec-02 03:08N 40°33' W 074°14'0 0.0
2016-Dec-02 02:33N 40°34' W 074°14'0 0.0
2016-Dec-02 01:33N 40°34' W 074°14'0 0.0
2016-Dec-01 22:33N 40°33' W 074°14'2 2.4
2016-Dec-01 21:34N 40°35' W 074°12'1 0.9
2016-Dec-01 20:27N 40°36' W 074°12'4 4.1
2016-Dec-01 19:33N 40°39' W 074°08'1 1.3
2016-Dec-01 18:33N 40°39' W 074°07'2 1.8
2016-Dec-01 17:34N 40°40' W 074°05'0 0.0
2016-Dec-01 16:33N 40°40' W 074°05'0 0.0
2016-Dec-01 15:33N 40°40' W 074°05'0 0.0
2016-Dec-01 14:33N 40°40' W 074°05'0 0.0
2016-Dec-01 13:34N 40°40' W 074°05'0 0.0
2016-Dec-01 12:33N 40°40' W 074°05'0 0.0
2016-Dec-01 11:33N 40°40' W 074°05'0 0.0
2016-Dec-01 10:33N 40°40' W 074°05'2 1.7
2016-Dec-01 09:33N 40°39' W 074°03'1 0.5
2016-Dec-01 08:34N 40°40' W 074°04'1 1.2
2016-Dec-01 07:34N 40°40' W 074°05'0 0.0
2016-Dec-01 06:34N 40°40' W 074°05'2 1.9
2016-Dec-01 05:34N 40°40' W 074°03'2 2.3
2016-Dec-01 04:33N 40°42' W 074°00'3 2.7
2016-Dec-01 03:34N 40°40' W 074°03'1 1.3
2016-Dec-01 02:34N 40°40' W 074°05'4 4.3
2016-Dec-01 01:33N 40°38' W 074°10'2 2.3
2016-Dec-01 00:33N 40°39' W 074°07'2 1.5
2016-Nov-30 23:33N 40°40' W 074°09'1 1.5
2016-Nov-30 22:33N 40°41' W 074°09'3 2.7
2016-Nov-30 21:32N 40°39' W 074°08'4 4.4
2016-Nov-30 20:33N 40°36' W 074°03'2 1.8
2016-Nov-30 19:33N 40°38' W 074°04'4 3.8
2016-Nov-30 18:33N 40°38' W 074°09'1 0.6
2016-Nov-30 17:33N 40°38' W 074°10'0 0.0
2016-Nov-30 16:33N 40°38' W 074°10'0 0.0
2016-Nov-30 15:33N 40°38' W 074°10'0 0.0
2016-Nov-30 14:34N 40°38' W 074°10'2 2.5
2016-Nov-30 13:33N 40°39' W 074°07'0 0.5
2016-Nov-30 12:34N 40°39' W 074°07'6 5.5
2016-Nov-30 11:32N 40°35' W 074°13'2 2.0
2016-Nov-30 10:33N 40°33' W 074°14'0 0.1
2016-Nov-30 09:33N 40°33' W 074°15'6 6.3
2016-Nov-30 08:34N 40°39' W 074°10'0 0.5
2016-Nov-30 07:33N 40°38' W 074°10'0 0.0
2016-Nov-30 06:33N 40°38' W 074°10'0 0.0
2016-Nov-30 05:33N 40°38' W 074°10'0 0.0
2016-Nov-30 04:33N 40°38' W 074°10'0 0.0
2016-Nov-30 03:33N 40°38' W 074°10'0 0.0
2016-Nov-30 02:33N 40°38' W 074°10'0 0.0
2016-Nov-30 01:33N 40°38' W 074°10'0 0.0
2016-Nov-30 00:33N 40°38' W 074°10'0 0.0
2016-Nov-29 23:33N 40°38' W 074°10'2 1.8
2016-Nov-29 22:33N 40°38' W 074°12'5 2.4
2016-Nov-29 20:33N 40°33' W 074°14'6 6.2
2016-Nov-29 19:34N 40°39' W 074°10'3 2.6
2016-Nov-29 18:34N 40°39' W 074°07'3 2.6
2016-Nov-29 17:33N 40°38' W 074°10'0 0.0
2016-Nov-29 16:33N 40°38' W 074°10'0 0.0
2016-Nov-29 15:33N 40°38' W 074°10'0 0.0
2016-Nov-29 14:34N 40°38' W 074°10'0 0.0
2016-Nov-29 13:33N 40°38' W 074°10'0 0.0
2016-Nov-29 12:33N 40°38' W 074°10'0 0.0
2016-Nov-29 11:33N 40°38' W 074°10'0 0.0
2016-Nov-29 10:33N 40°38' W 074°10'0 0.0
2016-Nov-29 09:34N 40°38' W 074°10'1 1.2
2016-Nov-29 08:33N 40°38' W 074°11'3 2.6
2016-Nov-29 07:34N 40°39' W 074°08'2 1.6
2016-Nov-29 06:33N 40°39' W 074°06'3 2.9
2016-Nov-29 05:33N 40°38' W 074°10'0 0.0
2016-Nov-29 04:33N 40°38' W 074°10'0 0.0
2016-Nov-29 03:33N 40°38' W 074°10'2 2.1
2016-Nov-29 02:34N 40°40' W 074°08'2 1.7
2016-Nov-29 01:33N 40°39' W 074°09'2 2.4
2016-Nov-29 00:33N 40°38' W 074°12'4 4.2
2016-Nov-28 23:34N 40°39' W 074°07'2 2.3
2016-Nov-28 22:34N 40°38' W 074°04'1 1.0
2016-Nov-28 21:34N 40°39' W 074°04'1 1.4
2016-Nov-28 20:33N 40°40' W 074°03'3 2.7
2016-Nov-28 19:34N 40°41' W 074°00'2 1.7
2016-Nov-28 18:34N 40°42' W 073°58'0 0.0
2016-Nov-28 17:34N 40°42' W 073°58'0 0.0
2016-Nov-28 16:33N 40°42' W 073°58'0 0.0
2016-Nov-28 15:34N 40°42' W 073°58'0 0.0
2016-Nov-28 14:34N 40°42' W 073°58'0 0.1
2016-Nov-28 13:34N 40°42' W 073°59'4 3.8
2016-Nov-28 12:34N 40°40' W 074°03'5 4.5
2016-Nov-28 11:33N 40°40' W 074°09'2 1.8
2016-Nov-28 10:33N 40°39' W 074°07'1 0.7
2016-Nov-28 09:33N 40°39' W 074°06'3 2.8
2016-Nov-28 08:33N 40°38' W 074°10'0 0.0
2016-Nov-28 07:33N 40°38' W 074°10'0 0.0
2016-Nov-28 06:33N 40°38' W 074°10'0 0.0
2016-Nov-28 05:33N 40°38' W 074°10'0 0.0
2016-Nov-28 04:33N 40°38' W 074°10'2 2.0
2016-Nov-28 03:33N 40°40' W 074°08'2 1.7
2016-Nov-28 02:34N 40°39' W 074°07'2 1.8
2016-Nov-28 01:33N 40°38' W 074°10'0 0.0
2016-Nov-28 00:33N 40°38' W 074°10'0 0.0
2016-Nov-27 23:33N 40°38' W 074°10'0 0.0
2016-Nov-27 22:33N 40°38' W 074°10'0 0.0
2016-Nov-27 21:33N 40°38' W 074°10'0 0.0
2016-Nov-27 20:34N 40°38' W 074°10'2 2.2
2016-Nov-27 19:34N 40°39' W 074°07'3 3.3
2016-Nov-27 18:33N 40°42' W 074°09'3 3.4
2016-Nov-27 17:33N 40°38' W 074°10'0 0.0
2016-Nov-27 16:34N 40°38' W 074°10'0 0.0
2016-Nov-27 15:34N 40°38' W 074°10'0 0.0
2016-Nov-27 14:34N 40°38' W 074°10'0 0.0
2016-Nov-27 13:33N 40°38' W 074°10'0 0.0
2016-Nov-27 12:34N 40°38' W 074°10'0 0.0
2016-Nov-27 11:33N 40°38' W 074°10'0 0.0
2016-Nov-27 10:33N 40°38' W 074°10'0 0.0
2016-Nov-27 09:33N 40°38' W 074°10'0 0.3
2016-Nov-27 08:34N 40°38' W 074°09'4 3.8
2016-Nov-27 07:33N 40°39' W 074°05'4 3.9
2016-Nov-27 06:34N 40°42' W 074°01'8 7.5
2016-Nov-27 05:33N 40°48' W 073°55'  

Dump ship's entire track history